Time;durP1;ratioP1;P1;durP2;ratioP2;P2;SDS_P1;SDS_P2;PMS_P1;PMS_P2;Temp;Humidity;BMP_temperature;BMP_pressure;BME280_temperature;BME280_humidity;BME280_pressure;Samples;Min_cycle;Max_cycle;Signal;HPM_P1;HPM_P2
2024/01/17 00:01:22;;;;;;;0.00;0.00;;;24.50;47.10;;;;;;5008873;28;20239;-47
2024/01/17 00:03:53;;;;;;;0.00;0.00;;;24.60;47.20;;;;;;5007662;28;20218;-47
2024/01/17 00:06:23;;;;;;;0.00;0.00;;;24.60;47.20;;;;;;5009578;28;20626;-47
2024/01/17 00:08:54;;;;;;;0.00;0.00;;;24.60;47.20;;;;;;5011194;28;20216;-44
2024/01/17 00:11:26;;;;;;;0.10;0.10;;;24.70;47.30;;;;;;5008516;28;20229;-45
2024/01/17 00:13:57;;;;;;;0.00;0.00;;;24.70;47.10;;;;;;5008745;28;20207;-48
2024/01/17 00:16:28;;;;;;;0.00;0.00;;;24.70;47.00;;;;;;5007913;28;20197;-45
2024/01/17 00:18:59;;;;;;;0.00;0.00;;;24.70;47.00;;;;;;5008398;28;20201;-46
2024/01/17 00:21:29;;;;;;;0.00;0.00;;;24.80;47.00;;;;;;5008632;28;20594;-46
2024/01/17 00:24:00;;;;;;;0.03;0.03;;;24.80;47.00;;;;;;5008389;28;20594;-46
2024/01/17 00:26:33;;;;;;;0.00;0.00;;;24.80;46.90;;;;;;5008148;28;20195;-44
2024/01/17 00:29:03;;;;;;;0.00;0.00;;;24.90;46.90;;;;;;5008556;28;20204;-44
2024/01/17 00:31:34;;;;;;;0.00;0.00;;;24.90;46.80;;;;;;5007959;28;20233;-47
2024/01/17 00:34:05;;;;;;;0.00;0.00;;;25.00;46.80;;;;;;5008493;28;20203;-47
2024/01/17 00:36:36;;;;;;;0.00;0.00;;;25.00;46.80;;;;;;5008690;28;20197;-47
2024/01/17 00:39:06;;;;;;;0.00;0.00;;;25.00;46.70;;;;;;5027639;28;20306;-45
2024/01/17 00:41:39;;;;;;;0.00;0.00;;;25.00;46.60;;;;;;5027758;28;20224;-44
2024/01/17 00:44:10;;;;;;;0.00;0.00;;;25.10;46.60;;;;;;5022806;28;20201;-44
2024/01/17 00:46:40;;;;;;;0.00;0.00;;;25.10;46.60;;;;;;5008524;28;20200;-47
2024/01/17 00:49:11;;;;;;;0.00;0.00;;;25.10;46.50;;;;;;5008576;28;20200;-48
2024/01/17 00:51:42;;;;;;;0.00;0.00;;;25.20;46.50;;;;;;5008063;28;20335;-45
2024/01/17 00:54:12;;;;;;;0.05;0.05;;;25.20;46.50;;;;;;5008584;28;20205;-47
2024/01/17 00:56:45;;;;;;;0.00;0.00;;;25.20;46.40;;;;;;5008616;28;20212;-45
2024/01/17 00:59:15;;;;;;;0.00;0.00;;;25.30;46.30;;;;;;5008006;28;20201;-47
2024/01/17 01:01:46;;;;;;;0.00;0.00;;;25.30;46.20;;;;;;5009080;28;20228;-44
2024/01/17 01:04:17;;;;;;;0.00;0.00;;;25.30;46.10;;;;;;5011635;28;20660;-47
2024/01/17 01:06:47;;;;;;;0.00;0.00;;;25.30;46.10;;;;;;5011692;28;20710;-44
2024/01/17 01:09:18;;;;;;;0.00;0.00;;;25.40;46.10;;;;;;5031080;28;20576;-43
2024/01/17 01:11:49;;;;;;;0.00;0.00;;;25.40;46.00;;;;;;5011838;28;20290;-44
2024/01/17 01:14:19;;;;;;;0.00;0.00;;;25.40;45.90;;;;;;5013997;28;20819;-46
2024/01/17 01:16:50;;;;;;;0.00;0.00;;;25.50;45.80;;;;;;5014511;28;20196;-45
2024/01/17 01:19:21;;;;;;;0.00;0.00;;;25.50;45.70;;;;;;5013106;28;20204;-44
2024/01/17 01:21:51;;;;;;;0.00;0.00;;;25.60;45.60;;;;;;5014626;28;20709;-45
2024/01/17 01:24:22;;;;;;;0.00;0.00;;;25.60;45.50;;;;;;5014451;28;20652;-41
2024/01/17 01:26:54;;;;;;;0.00;0.00;;;25.60;45.40;;;;;;5014164;28;20200;-41
2024/01/17 01:29:25;;;;;;;0.00;0.00;;;25.60;45.30;;;;;;5014523;28;20203;-42
2024/01/17 01:31:56;;;;;;;0.00;0.00;;;25.70;45.30;;;;;;5013802;28;20232;-43
2024/01/17 01:34:27;;;;;;;0.00;0.00;;;25.70;45.00;;;;;;5014584;28;20208;-42
2024/01/17 01:37:00;;;;;;;0.10;0.10;;;25.70;45.00;;;;;;5015646;28;20255;-43
2024/01/17 01:39:30;;;;;;;0.00;0.00;;;25.70;45.00;;;;;;5015378;28;20216;-45
2024/01/17 01:42:03;;;;;;;0.00;0.00;;;25.70;45.00;;;;;;5014553;28;20230;-44
2024/01/17 01:44:34;;;;;;;0.00;0.00;;;25.80;44.90;;;;;;5014586;28;20209;-47
2024/01/17 01:47:07;;;;;;;0.00;0.00;;;25.80;44.80;;;;;;5013348;28;20807;-41
2024/01/17 01:49:38;;;;;;;0.00;0.00;;;25.80;44.80;;;;;;5014752;28;20680;-41
2024/01/17 01:52:10;;;;;;;0.00;0.00;;;25.80;44.50;;;;;;5013320;28;20228;-41
2024/01/17 01:54:42;;;;;;;0.00;0.00;;;25.80;44.30;;;;;;5014658;28;20224;-41
2024/01/17 01:57:14;;;;;;;0.00;0.00;;;25.90;44.30;;;;;;5013985;28;20201;-44
2024/01/17 01:59:45;;;;;;;0.00;0.00;;;25.90;44.30;;;;;;5013420;28;20200;-44
2024/01/17 02:02:16;;;;;;;0.00;0.00;;;25.90;44.10;;;;;;5014475;28;20240;-42
2024/01/17 02:04:47;;;;;;;0.00;0.00;;;26.00;44.20;;;;;;5014364;28;20201;-42
2024/01/17 02:07:18;;;;;;;0.00;0.00;;;25.90;44.10;;;;;;5018395;28;20207;-42
2024/01/17 02:09:49;;;;;;;0.00;0.00;;;26.00;44.10;;;;;;5033787;28;20227;-41
2024/01/17 02:12:22;;;;;;;0.00;0.00;;;26.10;44.30;;;;;;5032808;28;20578;-43
2024/01/17 02:14:52;;;;;;;0.00;0.00;;;26.10;44.20;;;;;;5034018;28;20200;-41
2024/01/17 02:17:23;;;;;;;0.00;0.00;;;26.10;44.10;;;;;;5018321;28;20196;-41
2024/01/17 02:19:54;;;;;;;0.00;0.00;;;26.10;44.20;;;;;;5013543;28;20228;-42
2024/01/17 02:22:25;;;;;;;0.00;0.00;;;26.20;44.20;;;;;;5010835;28;20221;-43
2024/01/17 02:24:57;;;;;;;0.00;0.00;;;26.10;44.00;;;;;;5010954;28;20205;-43
2024/01/17 02:27:28;;;;;;;0.00;0.00;;;26.20;44.00;;;;;;5011029;28;20208;-42
2024/01/17 02:29:59;;;;;;;0.00;0.00;;;26.20;44.10;;;;;;5010254;28;20196;-42
2024/01/17 02:32:30;;;;;;;0.00;0.00;;;26.20;44.20;;;;;;5009547;28;20224;-42
2024/01/17 02:35:01;;;;;;;0.00;0.00;;;26.20;44.10;;;;;;5010328;28;21103;-42
2024/01/17 02:37:32;;;;;;;0.00;0.00;;;26.30;44.00;;;;;;5016694;28;20204;-42
2024/01/17 02:40:05;;;;;;;0.00;0.00;;;26.30;44.10;;;;;;5030637;28;20664;-41
2024/01/17 02:42:35;;;;;;;0.00;0.00;;;26.30;44.00;;;;;;5030294;28;20598;-41
2024/01/17 02:45:06;;;;;;;0.00;0.00;;;26.30;43.80;;;;;;5016089;28;20627;-43
2024/01/17 02:47:37;;;;;;;0.00;0.00;;;26.30;43.70;;;;;;5010438;28;20552;-44
2024/01/17 02:50:08;;;;;;;0.00;0.00;;;26.40;43.60;;;;;;5010544;28;20224;-44
2024/01/17 02:52:39;;;;;;;0.00;0.00;;;26.40;43.50;;;;;;5010475;28;20228;-44
2024/01/17 02:55:12;;;;;;;0.00;0.00;;;26.40;43.40;;;;;;5009476;28;20207;-43
2024/01/17 02:57:43;;;;;;;0.00;0.00;;;26.50;43.30;;;;;;5009787;28;20208;-45
2024/01/17 03:00:14;;;;;;;0.00;0.00;;;26.40;43.10;;;;;;5010131;28;20216;-43
2024/01/17 03:02:45;;;;;;;0.00;0.00;;;26.50;43.00;;;;;;5009383;28;20229;-44
2024/01/17 03:05:15;;;;;;;0.00;0.00;;;26.50;42.90;;;;;;5010352;28;20220;-44
2024/01/17 03:07:46;;;;;;;0.00;0.00;;;26.50;43.00;;;;;;5018595;28;20208;-45
2024/01/17 03:10:18;;;;;;;0.00;0.00;;;26.50;43.00;;;;;;5029583;28;20204;-44
2024/01/17 03:12:50;;;;;;;0.00;0.00;;;26.50;43.10;;;;;;5020056;28;20716;-43
2024/01/17 03:15:20;;;;;;;0.00;0.00;;;26.50;43.10;;;;;;5010051;28;20211;-42
2024/01/17 03:17:51;;;;;;;0.00;0.00;;;26.60;43.30;;;;;;5009509;28;20212;-45
2024/01/17 03:20:22;;;;;;;0.00;0.00;;;26.60;43.40;;;;;;5009512;28;20436;-42
2024/01/17 03:22:55;;;;;;;0.00;0.00;;;26.60;43.30;;;;;;5009420;28;20240;-44
2024/01/17 03:25:27;;;;;;;0.00;0.00;;;26.70;43.40;;;;;;5009404;28;20914;-42
2024/01/17 03:27:58;;;;;;;0.00;0.00;;;26.80;43.10;;;;;;5009357;28;20227;-42
2024/01/17 03:30:28;;;;;;;0.00;0.00;;;26.90;42.90;;;;;;5009162;28;20203;-41
2024/01/17 03:32:59;;;;;;;0.00;0.00;;;26.90;42.90;;;;;;5008899;28;20235;-44
2024/01/17 03:35:30;;;;;;;0.00;0.00;;;26.90;42.70;;;;;;5008179;28;20572;-44
2024/01/17 03:38:00;;;;;;;0.00;0.00;;;26.90;42.70;;;;;;5020336;28;20309;-43
2024/01/17 03:40:33;;;;;;;0.00;0.00;;;26.90;42.80;;;;;;4989865;28;20208;-45
2024/01/17 03:43:03;;;;;;;0.00;0.00;;;26.90;42.70;;;;;;4989911;28;20229;-43
2024/01/17 03:45:34;;;;;;;0.00;0.00;;;27.00;42.80;;;;;;4990134;28;20504;-42
2024/01/17 03:48:06;;;;;;;0.00;0.00;;;27.00;42.80;;;;;;4992172;28;20197;-41
2024/01/17 03:50:37;;;;;;;0.00;0.00;;;27.00;42.60;;;;;;5008826;28;20201;-41
2024/01/17 03:53:07;;;;;;;0.00;0.00;;;27.00;42.60;;;;;;5008165;28;20606;-44
2024/01/17 03:55:40;;;;;;;0.00;0.00;;;27.00;42.60;;;;;;4991083;28;20212;-44
2024/01/17 03:58:10;;;;;;;0.00;0.00;;;27.00;42.70;;;;;;5008748;28;20204;-44
2024/01/17 04:00:41;;;;;;;0.00;0.00;;;27.00;42.80;;;;;;5009403;28;20219;-44
2024/01/17 04:03:14;;;;;;;0.00;0.00;;;27.00;42.80;;;;;;5008788;28;20291;-44
2024/01/17 04:05:45;;;;;;;0.00;0.00;;;27.00;42.90;;;;;;5009467;28;20205;-45
2024/01/17 04:08:16;;;;;;;0.00;0.00;;;27.10;43.00;;;;;;5021147;28;20199;-44
2024/01/17 04:10:48;;;;;;;0.00;0.00;;;27.10;43.10;;;;;;5029269;28;20204;-45
2024/01/17 04:13:19;;;;;;;0.00;0.00;;;27.10;43.10;;;;;;5028439;28;20646;-46
2024/01/17 04:15:49;;;;;;;0.00;0.00;;;27.10;43.00;;;;;;5027702;28;20687;-45
2024/01/17 04:18:20;;;;;;;0.00;0.00;;;27.10;43.20;;;;;;5022428;28;20196;-44
2024/01/17 04:20:51;;;;;;;0.00;0.00;;;27.10;43.30;;;;;;5008286;28;20205;-44
2024/01/17 04:23:21;;;;;;;0.00;0.00;;;27.20;43.40;;;;;;5006673;28;20220;-41
2024/01/17 04:25:54;;;;;;;0.00;0.00;;;27.20;43.50;;;;;;5008601;28;20203;-43
2024/01/17 04:28:25;;;;;;;0.00;0.00;;;27.20;43.50;;;;;;5007979;28;20196;-43
2024/01/17 04:30:55;;;;;;;0.00;0.00;;;27.20;43.50;;;;;;5009183;28;20288;-46
2024/01/17 04:33:26;;;;;;;0.00;0.00;;;27.20;43.60;;;;;;5008049;28;20712;-45
2024/01/17 04:35:57;;;;;;;0.00;0.00;;;27.20;43.70;;;;;;5008538;28;20208;-46
2024/01/17 04:38:27;;;;;;;0.00;0.00;;;27.30;43.80;;;;;;5022943;28;20204;-44
2024/01/17 04:41:00;;;;;;;0.00;0.00;;;27.20;43.80;;;;;;5027872;28;20660;-46
2024/01/17 04:43:30;;;;;;;0.00;0.00;;;27.30;43.90;;;;;;5027165;28;20227;-43
2024/01/17 04:46:01;;;;;;;0.00;0.00;;;27.30;44.00;;;;;;5027006;28;20200;-43
2024/01/17 04:48:31;;;;;;;0.00;0.00;;;27.30;44.00;;;;;;5011124;28;20207;-45
2024/01/17 04:51:02;;;;;;;0.00;0.00;;;27.30;44.00;;;;;;5008040;28;20204;-47
2024/01/17 04:53:33;;;;;;;0.00;0.00;;;27.40;44.10;;;;;;5007765;28;20736;-44
2024/01/17 04:56:07;;;;;;;0.00;0.00;;;27.40;44.10;;;;;;5008845;28;20247;-45
2024/01/17 04:58:38;;;;;;;0.00;0.00;;;27.40;44.10;;;;;;5009075;28;20304;-42
2024/01/17 05:01:08;;;;;;;0.00;0.00;;;27.40;44.10;;;;;;5007677;28;20205;-44
2024/01/17 05:03:39;;;;;;;0.00;0.00;;;27.50;44.30;;;;;;5008650;28;20288;-43
2024/01/17 05:06:10;;;;;;;0.00;0.00;;;27.50;44.30;;;;;;5008227;28;20197;-42
2024/01/17 05:08:41;;;;;;;0.00;0.00;;;27.40;44.20;;;;;;5024157;28;20204;-45
2024/01/17 05:11:13;;;;;;;0.00;0.00;;;27.50;44.30;;;;;;5027244;28;20200;-45
2024/01/17 05:13:44;;;;;;;0.00;0.00;;;27.50;44.40;;;;;;5028259;28;20204;-46
2024/01/17 05:16:14;;;;;;;0.00;0.00;;;27.50;45.00;;;;;;5009429;28;20203;-44
2024/01/17 05:18:45;;;;;;;0.00;0.00;;;27.50;44.30;;;;;;5008983;28;20212;-46
2024/01/17 05:21:16;;;;;;;0.00;0.00;;;27.50;44.30;;;;;;5008305;28;20210;-44
2024/01/17 05:23:46;;;;;;;0.00;0.00;;;27.50;44.30;;;;;;5007911;28;20236;-47
2024/01/17 05:26:20;;;;;;;0.00;0.00;;;27.60;44.40;;;;;;5008261;28;20653;-45
2024/01/17 05:28:50;;;;;;;0.00;0.00;;;27.60;44.30;;;;;;5007785;28;20197;-42
2024/01/17 05:31:21;;;;;;;0.00;0.00;;;27.60;44.30;;;;;;5007744;28;20208;-43
2024/01/17 05:33:52;;;;;;;0.00;0.00;;;27.60;44.30;;;;;;5008089;28;20201;-44
2024/01/17 05:36:22;;;;;;;0.00;0.00;;;27.60;44.40;;;;;;5008100;28;20201;-44
2024/01/17 05:38:53;;;;;;;0.00;0.00;;;27.60;44.30;;;;;;5025141;28;20207;-45
2024/01/17 05:41:25;;;;;;;0.00;0.00;;;27.60;44.30;;;;;;5026051;28;20208;-47
2024/01/17 05:43:56;;;;;;;0.00;0.00;;;27.60;44.30;;;;;;5007071;28;20580;-47
2024/01/17 05:46:26;;;;;;;0.00;0.00;;;27.60;44.30;;;;;;5007576;28;20201;-44
2024/01/17 05:48:57;;;;;;;0.00;0.00;;;27.60;44.30;;;;;;5008557;28;20208;-46
2024/01/17 05:51:28;;;;;;;0.00;0.00;;;27.60;44.30;;;;;;5006795;28;20221;-46
2024/01/17 05:53:58;;;;;;;0.00;0.00;;;27.60;44.30;;;;;;5006552;28;20228;-44
2024/01/17 05:56:31;;;;;;;0.00;0.00;;;27.60;44.30;;;;;;5006787;28;20212;-46
2024/01/17 05:59:02;;;;;;;0.00;0.00;;;27.60;44.40;;;;;;5010408;28;20208;-47
2024/01/17 06:01:34;;;;;;;0.00;0.00;;;27.50;44.40;;;;;;5011370;28;20727;-44
2024/01/17 06:04:04;;;;;;;0.00;0.00;;;27.60;44.40;;;;;;5001253;28;20202;-46
2024/01/17 06:06:35;;;;;;;0.00;0.00;;;27.60;44.30;;;;;;5008605;28;20653;-44
2024/01/17 06:09:07;;;;;;;0.00;0.00;;;27.50;44.40;;;;;;5030364;28;20211;-42
2024/01/17 06:11:39;;;;;;;0.00;0.00;;;27.60;44.50;;;;;;5018752;28;20714;-45
2024/01/17 06:14:10;;;;;;;0.00;0.00;;;27.60;44.50;;;;;;5010872;28;20204;-44
2024/01/17 06:16:41;;;;;;;0.00;0.00;;;27.50;44.60;;;;;;5010513;28;20196;-44
2024/01/17 06:19:11;;;;;;;0.00;0.00;;;27.60;44.60;;;;;;5010327;28;20212;-45
2024/01/17 06:21:42;;;;;;;0.00;0.00;;;27.60;44.60;;;;;;5010400;28;20720;-43
2024/01/17 06:24:12;;;;;;;0.00;0.00;;;27.60;44.60;;;;;;5010147;28;20204;-44
2024/01/17 06:26:45;;;;;;;0.00;0.00;;;27.50;44.50;;;;;;5010698;28;20201;-44
2024/01/17 06:29:16;;;;;;;0.00;0.00;;;27.50;44.40;;;;;;5010321;28;20211;-46
2024/01/17 06:31:46;;;;;;;0.00;0.00;;;27.50;44.50;;;;;;5009990;28;20224;-44
2024/01/17 06:34:17;;;;;;;0.00;0.00;;;27.50;45.00;;;;;;5010249;28;20205;-44
2024/01/17 06:36:48;;;;;;;0.00;0.00;;;27.50;44.40;;;;;;5011115;28;20205;-41
2024/01/17 06:39:19;;;;;;;0.00;0.00;;;27.50;44.40;;;;;;5030574;28;20211;-46
2024/01/17 06:41:51;;;;;;;0.00;0.00;;;27.50;44.40;;;;;;5027821;28;20224;-43
2024/01/17 06:44:22;;;;;;;0.00;0.00;;;27.50;44.40;;;;;;5013849;28;20201;-43
2024/01/17 06:46:53;;;;;;;0.00;0.00;;;27.40;44.30;;;;;;5013732;28;20680;-43
2024/01/17 06:49:23;;;;;;;0.00;0.00;;;27.40;44.40;;;;;;5013100;28;20204;-44
2024/01/17 06:51:54;;;;;;;0.00;0.00;;;27.40;44.40;;;;;;5013482;28;20623;-43
2024/01/17 06:54:24;;;;;;;0.00;0.00;;;27.40;44.40;;;;;;5014055;28;20200;-42
2024/01/17 06:56:57;;;;;;;0.00;0.00;;;27.40;44.50;;;;;;5013610;28;20243;-44
2024/01/17 06:59:27;;;;;;;0.00;0.00;;;27.40;44.50;;;;;;5013200;28;20226;-43
2024/01/17 07:01:58;;;;;;;0.00;0.00;;;27.40;44.50;;;;;;5013255;28;20758;-48
2024/01/17 07:04:29;;;;;;;0.00;0.00;;;27.40;44.50;;;;;;5013204;28;20196;-46
2024/01/17 07:06:59;;;;;;;0.00;0.00;;;27.30;44.50;;;;;;5015729;28;20541;-44
2024/01/17 07:09:30;;;;;;;0.00;0.00;;;27.30;44.50;;;;;;5033415;28;20656;-48
2024/01/17 07:12:02;;;;;;;0.00;0.00;;;27.30;45.20;;;;;;5033123;28;20227;-47
2024/01/17 07:14:33;;;;;;;0.00;0.00;;;27.30;44.60;;;;;;5033909;28;20196;-48
2024/01/17 07:17:04;;;;;;;0.00;0.00;;;27.30;44.60;;;;;;5033191;28;20204;-47
2024/01/17 07:19:37;;;;;;;0.00;0.00;;;27.30;44.60;;;;;;5032761;28;20200;-45
2024/01/17 07:22:09;;;;;;;0.00;0.00;;;27.30;44.60;;;;;;5033039;28;20315;-46
2024/01/17 07:24:39;;;;;;;0.00;0.00;;;27.20;44.50;;;;;;5029196;28;20196;-47
2024/01/17 07:27:12;;;;;;;0.00;0.00;;;27.20;44.60;;;;;;5029243;28;20702;-45
2024/01/17 07:29:42;;;;;;;0.00;0.00;;;27.20;44.60;;;;;;5031710;28;20220;-44
2024/01/17 07:32:13;;;;;;;0.00;0.00;;;27.20;44.60;;;;;;5032027;28;20220;-44
2024/01/17 07:34:44;;;;;;;0.00;0.00;;;27.20;44.60;;;;;;5033112;28;20316;-46
2024/01/17 07:37:14;;;;;;;0.00;0.00;;;27.10;44.70;;;;;;5032498;28;20199;-45
2024/01/17 07:39:45;;;;;;;0.00;0.00;;;27.10;44.80;;;;;;5032043;28;20196;-42
2024/01/17 07:42:18;;;;;;;0.00;0.00;;;27.10;44.80;;;;;;5032304;28;20726;-42
2024/01/17 07:44:49;;;;;;;0.00;0.00;;;27.00;44.80;;;;;;5032511;28;20204;-45
2024/01/17 07:47:19;;;;;;;0.00;0.00;;;27.00;44.90;;;;;;5031794;28;20204;-45
2024/01/17 07:49:50;;;;;;;0.00;0.00;;;27.00;44.90;;;;;;5011084;28;20681;-47
2024/01/17 07:52:21;;;;;;;0.00;0.00;;;27.00;45.00;;;;;;5008613;28;20768;-42
2024/01/17 07:54:51;;;;;;;0.00;0.00;;;27.00;45.00;;;;;;5009043;28;20212;-49
2024/01/17 07:57:24;;;;;;;0.00;0.00;;;27.00;45.10;;;;;;5008602;28;20239;-47
2024/01/17 07:59:54;;;;;;;0.00;0.00;;;27.00;45.10;;;;;;5008662;28;20197;-44
2024/01/17 08:02:25;;;;;;;0.00;0.00;;;27.00;45.10;;;;;;5007100;28;20232;-47
2024/01/17 08:04:56;;;;;;;0.00;0.00;;;26.90;45.00;;;;;;5008240;28;20201;-42
2024/01/17 08:07:26;;;;;;;0.00;0.00;;;26.90;45.00;;;;;;5013242;28;20211;-42
2024/01/17 08:09:57;;;;;;;0.00;0.00;;;26.90;45.10;;;;;;5009304;28;20208;-47
2024/01/17 08:12:29;;;;;;;0.00;0.00;;;26.90;45.10;;;;;;5008380;28;20228;-45
2024/01/17 08:15:00;;;;;;;0.00;0.00;;;26.90;45.10;;;;;;5009012;28;20201;-49
2024/01/17 08:17:31;;;;;;;0.00;0.00;;;26.80;45.00;;;;;;5007472;28;20205;-48
2024/01/17 08:20:01;;;;;;;0.00;0.00;;;26.80;45.70;;;;;;5008554;28;20231;-46
2024/01/17 08:22:32;;;;;;;0.00;0.00;;;26.80;45.10;;;;;;5007811;28;20225;-47
2024/01/17 08:25:03;;;;;;;0.00;0.00;;;26.80;45.10;;;;;;5008531;28;20203;-49
2024/01/17 08:27:36;;;;;;;0.00;0.00;;;26.70;45.00;;;;;;5007911;28;20204;-47
2024/01/17 08:30:09;;;;;;;0.00;0.00;;;26.70;45.10;;;;;;5008749;28;20200;-47
2024/01/17 08:32:40;;;;;;;0.00;0.00;;;26.70;45.10;;;;;;5007480;28;20708;-48
2024/01/17 08:35:13;;;;;;;0.00;0.00;;;26.70;45.10;;;;;;5008116;28;20278;-46
2024/01/17 08:37:43;;;;;;;0.00;0.00;;;26.70;45.10;;;;;;5016654;28;20208;-47
2024/01/17 08:40:15;;;;;;;0.00;0.00;;;26.70;45.10;;;;;;5017300;28;20207;-47
2024/01/17 08:42:49;;;;;;;0.00;0.00;;;26.70;45.10;;;;;;5008445;28;20227;-45
2024/01/17 08:45:20;;;;;;;0.00;0.00;;;26.60;45.00;;;;;;5004059;28;20223;-47
2024/01/17 08:47:51;;;;;;;0.00;0.00;;;26.60;45.00;;;;;;5007831;28;20299;-48
2024/01/17 08:50:21;;;;;;;0.00;0.00;;;26.60;45.10;;;;;;5007942;28;20213;-48
2024/01/17 08:52:52;;;;;;;0.00;0.00;;;26.60;45.10;;;;;;5008572;28;20231;-48
2024/01/17 08:55:23;;;;;;;0.00;0.00;;;26.60;45.10;;;;;;5008520;28;20196;-45
2024/01/17 08:57:55;;;;;;;0.00;0.00;;;26.50;45.10;;;;;;5008170;28;20208;-44
2024/01/17 09:00:26;;;;;;;0.00;0.00;;;26.50;45.10;;;;;;5007785;28;20205;-46
2024/01/17 09:02:56;;;;;;;0.00;0.00;;;26.50;45.10;;;;;;5007495;28;20350;-45
2024/01/17 09:05:27;;;;;;;0.00;0.00;;;26.50;45.10;;;;;;5008777;28;20563;-48
2024/01/17 09:08:03;;;;;;;0.00;0.00;;;26.50;45.10;;;;;;5018129;28;20576;-46
2024/01/17 09:10:34;;;;;;;0.00;0.00;;;26.50;45.10;;;;;;5027204;28;20207;-46
2024/01/17 09:13:06;;;;;;;0.00;0.00;;;26.40;45.10;;;;;;5008323;28;20321;-47
2024/01/17 09:15:37;;;;;;;0.00;0.00;;;26.40;45.10;;;;;;5008319;28;20205;-45
2024/01/17 09:18:08;;;;;;;0.00;0.00;;;26.40;45.10;;;;;;5007282;28;20201;-42
2024/01/17 09:20:38;;;;;;;0.00;0.00;;;26.40;45.20;;;;;;5014178;28;20751;-47
2024/01/17 09:23:09;;;;;;;0.00;0.00;;;26.30;45.10;;;;;;5014092;28;20224;-48
2024/01/17 09:25:40;;;;;;;0.00;0.00;;;26.30;45.10;;;;;;5007330;28;20209;-45
2024/01/17 09:28:12;;;;;;;0.00;0.00;;;26.30;45.10;;;;;;5007294;28;20649;-46
2024/01/17 09:30:43;;;;;;;0.00;0.00;;;26.30;45.10;;;;;;5006314;28;20207;-46
2024/01/17 09:33:13;;;;;;;0.00;0.00;;;26.30;45.10;;;;;;5011236;28;20240;-45
2024/01/17 09:35:44;;;;;;;0.00;0.00;;;26.20;45.10;;;;;;5012023;28;20208;-45
2024/01/17 09:38:15;;;;;;;0.00;0.00;;;26.20;45.10;;;;;;5016261;28;20232;-48
2024/01/17 09:40:49;;;;;;;0.00;0.00;;;26.20;45.10;;;;;;5012021;28;20554;-44
2024/01/17 09:43:22;;;;;;;0.00;0.00;;;26.20;45.10;;;;;;5011263;28;20295;-46
2024/01/17 09:45:54;;;;;;;0.00;0.00;;;26.20;45.10;;;;;;5010960;28;20197;-46
2024/01/17 09:48:27;;;;;;;0.00;0.00;;;26.20;45.10;;;;;;5011656;28;20201;-47
2024/01/17 09:50:59;;;;;;;0.00;0.00;;;26.20;45.10;;;;;;5011967;28;20295;-46
2024/01/17 09:53:33;;;;;;;0.00;0.00;;;26.10;45.10;;;;;;5010359;28;20764;-48
2024/01/17 09:56:05;;;;;;;0.00;0.00;;;26.10;45.10;;;;;;5011496;28;20201;-47
2024/01/17 09:58:38;;;;;;;0.00;0.00;;;26.10;45.10;;;;;;5011582;28;20193;-45
2024/01/17 10:01:11;;;;;;;0.00;0.00;;;26.10;45.10;;;;;;5011164;28;20205;-46
2024/01/17 10:03:44;;;;;;;0.00;0.00;;;26.00;45.10;;;;;;5011570;28;20216;-48
2024/01/17 10:06:18;;;;;;;0.00;0.00;;;26.00;45.10;;;;;;5011512;28;20644;-46
2024/01/17 10:08:49;;;;;;;0.00;0.00;;;26.00;45.10;;;;;;5029162;28;20817;-47
2024/01/17 10:11:20;;;;;;;0.00;0.00;;;26.00;45.10;;;;;;5031296;28;20211;-44
2024/01/17 10:13:53;;;;;;;0.00;0.00;;;25.90;45.10;;;;;;5031263;28;20228;-45
2024/01/17 10:16:24;;;;;;;0.00;0.00;;;25.90;45.10;;;;;;5030576;28;20204;-47
2024/01/17 10:18:55;;;;;;;0.00;0.00;;;25.90;45.10;;;;;;5025695;28;20196;-47
2024/01/17 10:21:26;;;;;;;0.00;0.00;;;25.90;45.10;;;;;;5010387;28;20719;-43
2024/01/17 10:23:56;;;;;;;0.00;0.00;;;25.90;45.10;;;;;;5010268;28;20197;-45
2024/01/17 10:26:28;;;;;;;0.00;0.00;;;25.90;45.10;;;;;;5009960;28;20295;-46
2024/01/17 10:29:01;;;;;;;0.00;0.00;;;25.90;45.10;;;;;;5011174;28;20208;-45
2024/01/17 10:31:32;;;;;;;0.00;0.00;;;25.80;45.20;;;;;;5010447;28;20220;-45
2024/01/17 10:34:03;;;;;;;0.00;0.00;;;25.80;45.10;;;;;;5010394;28;20324;-48
2024/01/17 10:36:33;;;;;;;0.00;0.00;;;25.80;45.10;;;;;;5011030;28;20197;-48
2024/01/17 10:39:05;;;;;;;0.00;0.00;;;25.80;45.10;;;;;;5030065;28;20207;-46
2024/01/17 10:41:36;;;;;;;0.00;0.00;;;25.70;45.10;;;;;;5031121;28;20224;-44
2024/01/17 10:44:08;;;;;;;0.00;0.00;;;25.70;45.10;;;;;;5027736;28;20204;-48
2024/01/17 10:46:39;;;;;;;0.00;0.00;;;25.70;45.10;;;;;;5010668;28;20193;-45
2024/01/17 10:49:10;;;;;;;0.00;0.00;;;25.70;45.10;;;;;;5010870;28;20236;-48
2024/01/17 10:51:45;;;;;;;0.10;0.10;;;25.60;45.10;;;;;;5010369;28;20217;-45
2024/01/17 10:54:19;;;;;;;0.00;0.00;;;25.60;45.10;;;;;;5010299;28;20224;-44
2024/01/17 10:56:55;;;;;;;0.00;0.00;;;25.60;45.10;;;;;;5010194;28;20207;-48
2024/01/17 10:59:29;;;;;;;0.00;0.00;;;25.60;45.80;;;;;;5010382;28;20193;-45
2024/01/17 11:02:00;;;;;;;0.10;0.10;;;25.60;45.10;;;;;;5009979;28;20232;-45
2024/01/17 11:04:36;;;;;;;0.00;0.00;;;25.60;45.20;;;;;;5010165;28;20204;-45
2024/01/17 11:07:08;;;;;;;0.05;0.05;;;25.60;45.20;;;;;;5012874;28;20203;-45
2024/01/17 11:09:39;;;;;;;0.00;0.00;;;25.50;45.20;;;;;;5030740;28;20204;-46
2024/01/17 11:12:12;;;;;;;0.00;0.00;;;25.50;45.20;;;;;;5030157;28;20227;-45
2024/01/17 11:14:45;;;;;;;0.05;0.05;;;25.50;45.20;;;;;;5015998;28;20232;-49
2024/01/17 11:17:18;;;;;;;0.00;0.00;;;25.50;45.20;;;;;;5010376;28;20201;-46
2024/01/17 11:19:49;;;;;;;0.00;0.00;;;25.50;45.20;;;;;;5010550;28;20208;-48
2024/01/17 11:22:20;;;;;;;0.00;0.00;;;25.40;45.10;;;;;;5009782;28;20233;-46
2024/01/17 11:24:58;;;;;;;0.00;0.00;;;25.40;45.10;;;;;;5009543;28;20208;-47
2024/01/17 11:27:35;;;;;;;0.00;0.00;;;25.40;45.20;;;;;;5010167;28;20543;-45
2024/01/17 11:30:20;;;;;;;0.00;0.00;;;25.40;45.20;;;;;;5009254;28;20223;-43
2024/01/17 11:33:00;;;;;;;0.00;0.00;;;25.30;45.10;;;;;;5009748;28;20467;-46
2024/01/17 11:35:48;;;;;;;0.00;0.00;;;25.30;45.10;;;;;;5009415;28;20243;-47
2024/01/17 11:38:33;;;;;;;0.00;0.00;;;25.30;45.10;;;;;;5022901;28;20319;-49
2024/01/17 11:41:09;;;;;;;0.00;0.00;;;25.30;45.10;;;;;;5009033;28;20288;-48
2024/01/17 11:43:42;;;;;;;0.00;0.00;;;25.30;45.10;;;;;;5009599;28;20596;-45
2024/01/17 11:46:15;;;;;;;0.00;0.00;;;25.20;45.10;;;;;;5009541;28;20247;-45
2024/01/17 11:48:47;;;;;;;0.00;0.00;;;25.20;45.20;;;;;;5009083;28;20192;-45
2024/01/17 11:51:21;;;;;;;0.00;0.00;;;25.30;45.30;;;;;;5009257;28;20201;-45
2024/01/17 11:53:53;;;;;;;0.00;0.00;;;25.20;45.20;;;;;;5008609;28;20312;-45
2024/01/17 11:56:28;;;;;;;0.03;0.03;;;25.20;45.20;;;;;;5008718;28;20553;-45
2024/01/17 11:59:06;;;;;;;0.00;0.00;;;25.20;45.30;;;;;;5009591;28;20196;-46
2024/01/17 12:01:48;;;;;;;0.00;0.00;;;25.10;45.20;;;;;;5009294;28;20228;-48
2024/01/17 12:04:20;;;;;;;0.00;0.00;;;25.10;45.20;;;;;;5008883;28;20244;-46
2024/01/17 12:06:55;;;;;;;0.00;0.00;;;25.10;45.20;;;;;;5010247;28;20544;-48
2024/01/17 12:09:25;;;;;;;0.08;0.08;;;25.10;45.20;;;;;;5029235;28;20199;-48
2024/01/17 12:11:56;;;;;;;0.05;0.05;;;25.10;45.20;;;;;;5028765;28;20224;-46
2024/01/17 12:14:30;;;;;;;0.00;0.00;;;25.10;45.30;;;;;;5028072;28;20230;-48
2024/01/17 12:17:04;;;;;;;0.00;0.00;;;25.10;45.20;;;;;;5027653;28;20231;-48
2024/01/17 12:19:37;;;;;;;0.00;0.00;;;25.10;45.30;;;;;;5024275;28;20192;-46
2024/01/17 12:22:08;;;;;;;0.10;0.10;;;25.00;45.20;;;;;;5008849;28;20216;-47
2024/01/17 12:24:40;;;;;;;0.00;0.00;;;25.00;45.20;;;;;;5009170;28;20205;-45
2024/01/17 12:27:10;;;;;;;0.00;0.00;;;25.00;45.20;;;;;;5008278;28;20197;-44
2024/01/17 12:29:42;;;;;;;0.00;0.00;;;25.00;45.20;;;;;;5008823;28;20661;-45
2024/01/17 12:32:14;;;;;;;0.10;0.10;;;24.90;45.20;;;;;;5008197;28;20779;-47
2024/01/17 12:34:45;;;;;;;0.00;0.00;;;24.90;45.20;;;;;;5008929;28;20232;-46
2024/01/17 12:37:16;;;;;;;0.10;0.10;;;24.90;45.20;;;;;;5013275;28;20207;-49
2024/01/17 12:39:47;;;;;;;0.00;0.00;;;24.90;45.20;;;;;;5028616;28;20200;-48
2024/01/17 12:42:18;;;;;;;0.00;0.00;;;24.90;45.30;;;;;;5028088;28;20227;-49
2024/01/17 12:44:49;;;;;;;0.00;0.00;;;24.90;45.30;;;;;;5020029;28;20707;-47
2024/01/17 12:47:22;;;;;;;0.00;0.00;;;24.90;45.30;;;;;;5010699;28;20201;-48
2024/01/17 12:49:53;;;;;;;0.00;0.00;;;24.90;45.30;;;;;;5012455;28;20197;-48
2024/01/17 12:52:24;;;;;;;0.00;0.00;;;24.90;45.30;;;;;;5011932;28;20682;-48
2024/01/17 12:54:54;;;;;;;0.00;0.00;;;24.80;45.30;;;;;;5011718;28;20235;-48
2024/01/17 12:57:25;;;;;;;0.00;0.00;;;24.80;45.30;;;;;;5011636;28;20192;-45
2024/01/17 12:59:56;;;;;;;0.00;0.00;;;24.80;45.30;;;;;;5011999;28;20197;-44
2024/01/17 13:02:28;;;;;;;0.00;0.00;;;24.80;45.30;;;;;;5011569;28;20236;-44
2024/01/17 13:05:11;;;;;;;0.00;0.00;;;24.80;45.30;;;;;;5011508;28;20204;-49
2024/01/17 13:07:43;;;;;;;0.00;0.00;;;24.70;45.30;;;;;;5019537;28;20211;-48
2024/01/17 13:10:21;;;;;;;0.00;0.00;;;24.70;45.30;;;;;;5031698;28;20204;-44